Time;durP1;ratioP1;P1;durP2;ratioP2;P2;SDS_P1;SDS_P2;PMS_P1;PMS_P2;Temp;Humidity;BMP_temperature;BMP_pressure;BME280_temperature;BME280_humidity;BME280_pressure;Samples;Min_cycle;Max_cycle;Signal;HPM_P1;HPM_P2
2022/06/08 00:02:27;;;;;;;4.08;3.45;;;;;;;25.41;49.55;99570.44;1823400;77;21197;-60
2022/06/08 00:04:55;;;;;;;4.03;3.67;;;;;;;25.39;49.40;99569.34;1729934;79;21111;-63
2022/06/08 00:07:21;;;;;;;4.72;3.40;;;;;;;25.39;49.46;99564.45;1773570;79;21024;-61
2022/06/08 00:09:49;;;;;;;3.83;3.02;;;;;;;25.38;49.51;99569.09;1769495;79;21564;-61
2022/06/08 00:12:16;;;;;;;3.87;3.47;;;;;;;25.38;49.41;99568.25;1773563;79;21006;-61
2022/06/08 00:14:42;;;;;;;5.67;3.33;;;;;;;25.37;49.33;99567.99;1775367;79;22206;-61
2022/06/08 00:17:09;;;;;;;4.20;3.58;;;;;;;25.37;49.29;99570.16;1771744;79;21052;-61
2022/06/08 00:19:35;;;;;;;7.20;3.62;;;;;;;25.37;49.36;99572.07;1768056;79;21084;-60
2022/06/08 00:22:03;;;;;;;3.08;2.77;;;;;;;25.35;49.36;99571.52;1775857;80;21533;-61
2022/06/08 00:24:30;;;;;;;4.03;3.62;;;;;;;25.34;49.30;99565.80;1775008;79;21503;-61
2022/06/08 00:26:57;;;;;;;3.40;3.10;;;;;;;25.34;49.36;99564.44;1770137;79;21237;-62
2022/06/08 00:29:24;;;;;;;3.52;3.22;;;;;;;25.34;49.35;99572.59;1772117;79;21084;-60
2022/06/08 00:31:52;;;;;;;3.83;3.05;;;;;;;25.33;49.19;99566.35;1766397;80;21051;-62
2022/06/08 00:34:19;;;;;;;5.37;3.20;;;;;;;25.32;49.23;99563.34;1756866;79;21537;-60
2022/06/08 00:36:46;;;;;;;3.17;2.90;;;;;;;25.32;49.15;99563.34;1764653;80;21037;-60
2022/06/08 00:39:13;;;;;;;3.55;3.10;;;;;;;25.31;49.03;99559.81;1763664;81;21362;-61
2022/06/08 00:41:47;;;;;;;5.17;3.60;;;;;;;25.30;49.02;99556.84;1760392;81;22072;-61
2022/06/08 00:44:40;;;;;;;3.42;2.98;;;;;;;25.30;49.12;99560.08;1759815;81;21036;-61
2022/06/08 00:47:08;;;;;;;3.65;3.35;;;;;;;25.28;49.06;99557.66;1756328;81;21063;-61
2022/06/08 00:49:49;;;;;;;4.50;3.27;;;;;;;25.27;49.03;99553.29;1739114;80;21580;-61
2022/06/08 00:52:16;;;;;;;4.33;2.77;;;;;;;25.26;48.74;99551.64;1750017;79;21114;-60
2022/06/08 00:54:47;;;;;;;3.22;2.52;;;;;;;25.26;48.80;99546.76;1759246;79;21039;-60
2022/06/08 00:57:21;;;;;;;2.80;2.60;;;;;;;25.25;48.70;99545.95;1751600;79;21063;-61
2022/06/08 00:59:53;;;;;;;2.80;2.60;;;;;;;25.24;48.63;99553.02;1749495;80;21038;-61
2022/06/08 01:02:20;;;;;;;4.45;2.85;;;;;;;25.23;48.81;99549.48;1754706;79;21021;-60
2022/06/08 01:04:48;;;;;;;3.20;2.95;;;;;;;25.22;48.74;99543.76;1812727;77;21062;-61
2022/06/08 01:07:20;;;;;;;3.05;2.70;;;;;;;25.22;48.60;99544.28;1795730;78;21005;-60
2022/06/08 01:09:47;;;;;;;3.30;3.00;;;;;;;25.21;48.69;99545.38;1811038;78;21038;-61
2022/06/08 01:12:18;;;;;;;3.27;2.98;;;;;;;25.21;48.72;99545.38;1802871;77;21029;-61
2022/06/08 01:14:48;;;;;;;8.75;3.05;;;;;;;25.20;48.93;99545.91;1806581;78;21032;-60
2022/06/08 01:17:18;;;;;;;4.58;2.85;;;;;;;25.19;48.54;99547.52;1807608;78;21140;-61
2022/06/08 01:19:48;;;;;;;3.58;3.27;;;;;;;25.19;48.58;99547.00;1807620;78;21497;-61
2022/06/08 01:22:18;;;;;;;3.67;2.87;;;;;;;25.17;48.58;99542.38;1786340;77;20994;-61
2022/06/08 01:24:48;;;;;;;3.77;3.47;;;;;;;25.17;48.76;99542.38;1798008;77;21057;-61
2022/06/08 01:27:38;;;;;;;3.20;2.90;;;;;;;25.16;48.66;99547.53;1790260;79;21569;-61
2022/06/08 01:30:19;;;;;;;3.10;2.80;;;;;;;25.15;48.71;99548.63;1792901;77;21132;-61
2022/06/08 01:32:58;;;;;;;3.15;2.85;;;;;;;25.15;48.69;99551.35;1808429;77;21021;-62
2022/06/08 01:35:51;;;;;;;3.62;2.70;;;;;;;25.13;48.59;99545.37;1804138;78;21036;-61
2022/06/08 01:38:58;;;;;;;3.70;3.40;;;;;;;25.11;48.79;99548.34;1808827;78;21513;-60
2022/06/08 01:42:06;;;;;;;3.33;3.02;;;;;;;25.11;48.62;99548.87;1802774;77;21025;-61
2022/06/08 01:45:28;;;;;;;3.40;3.00;;;;;;;25.09;48.72;99543.73;1803986;77;21189;-63
2022/06/08 01:47:30;;;;;;;2.95;2.75;;;;;;;25.08;48.67;99545.34;1794700;77;22091;-61
2022/06/08 01:50:06;;;;;;;2.95;2.65;;;;;;;25.07;48.66;99547.78;1788373;77;21060;-62
2022/06/08 01:52:39;;;;;;;3.47;3.17;;;;;;;25.05;48.73;99546.71;1807201;78;21025;-60
2022/06/08 01:55:29;;;;;;;3.35;2.72;;;;;;;25.04;48.81;99545.06;1807557;78;21006;-60
2022/06/08 01:58:14;;;;;;;4.05;3.08;;;;;;;25.05;48.73;99544.52;1804906;77;21144;-60
2022/06/08 02:00:48;;;;;;;3.30;2.90;;;;;;;25.04;48.76;99540.18;1802028;77;21018;-60
2022/06/08 02:03:43;;;;;;;3.00;2.75;;;;;;;25.03;48.75;99545.33;1797403;77;21017;-61
2022/06/08 02:06:21;;;;;;;3.08;2.80;;;;;;;25.02;48.83;99542.35;1810260;77;20982;-61
2022/06/08 02:09:05;;;;;;;3.00;2.80;;;;;;;25.01;48.87;99541.52;1807024;78;21053;-61
2022/06/08 02:11:44;;;;;;;3.60;2.95;;;;;;;25.01;48.94;99542.06;1803149;78;21721;-60
2022/06/08 02:14:44;;;;;;;4.12;3.08;;;;;;;25.00;48.86;99541.80;1806379;77;21494;-60
2022/06/08 02:17:39;;;;;;;4.95;2.90;;;;;;;24.99;48.77;99542.33;1786893;78;21069;-61
2022/06/08 02:20:23;;;;;;;3.30;3.00;;;;;;;24.99;48.77;99543.69;1782478;78;20994;-61
2022/06/08 02:22:56;;;;;;;2.85;2.65;;;;;;;24.98;48.87;99544.78;1782409;79;21021;-60
2022/06/08 02:25:34;;;;;;;3.02;2.60;;;;;;;24.98;48.88;99545.34;1776589;80;21719;-61
2022/06/08 02:28:23;;;;;;;3.47;2.90;;;;;;;24.97;48.79;99546.41;1781055;79;21069;-60
2022/06/08 02:30:56;;;;;;;3.37;3.08;;;;;;;24.98;48.85;99549.41;1804340;77;21040;-62
2022/06/08 02:36:26;;;;;;;5.37;3.22;;;;;;;24.97;48.84;99546.41;1798524;77;21493;-60
2022/06/08 02:39:01;;;;;;;3.62;2.60;;;;;;;24.96;48.73;99546.95;1782406;79;21554;-61
2022/06/08 02:41:28;;;;;;;2.98;2.70;;;;;;;24.96;48.84;99547.50;1807526;78;21009;-61
2022/06/08 02:44:02;;;;;;;3.80;2.77;;;;;;;24.95;48.87;99546.67;1806109;77;21043;-60
2022/06/08 02:46:47;;;;;;;3.65;2.98;;;;;;;24.97;48.96;99551.84;1801273;77;21045;-60
2022/06/08 02:49:15;;;;;;;3.50;2.90;;;;;;;24.96;48.80;99547.50;1806169;77;21092;-61
2022/06/08 02:51:47;;;;;;;3.15;2.85;;;;;;;24.96;48.94;99553.75;1806924;78;21149;-60
2022/06/08 02:54:18;;;;;;;2.98;2.72;;;;;;;24.97;48.98;99555.91;1798226;77;21025;-61
2022/06/08 02:57:16;;;;;;;3.98;2.67;;;;;;;24.97;48.85;99552.65;1806771;78;21489;-60
2022/06/08 02:59:49;;;;;;;2.98;2.77;;;;;;;24.97;48.70;99558.08;1778007;77;21054;-60
2022/06/08 03:02:32;;;;;;;4.25;3.00;;;;;;;24.97;48.77;99560.80;1808178;77;21088;-61
2022/06/08 03:05:10;;;;;;;3.30;2.53;;;;;;;24.97;48.64;99558.08;1810072;77;21217;-62
2022/06/08 03:07:45;;;;;;;3.20;2.87;;;;;;;24.98;48.65;99561.64;1807116;77;21072;-61
2022/06/08 03:10:13;;;;;;;6.37;3.00;;;;;;;24.97;48.66;99558.08;1811439;77;21022;-61
2022/06/08 03:12:52;;;;;;;3.10;2.80;;;;;;;24.98;48.58;99556.20;1803314;77;21033;-61
2022/06/08 03:15:24;;;;;;;3.08;2.77;;;;;;;24.98;48.53;99555.66;1807804;78;21076;-61
2022/06/08 03:17:52;;;;;;;4.05;3.00;;;;;;;24.99;48.47;99556.47;1812917;78;22085;-61
2022/06/08 03:20:23;;;;;;;3.15;2.85;;;;;;;25.00;48.40;99554.03;1806197;77;21079;-61
2022/06/08 03:22:51;;;;;;;2.95;2.72;;;;;;;25.01;48.33;99554.29;1807161;79;21506;-60
2022/06/08 03:25:19;;;;;;;3.30;2.98;;;;;;;25.01;48.41;99544.23;1791006;78;21033;-61
2022/06/08 03:27:47;;;;;;;3.72;3.30;;;;;;;25.03;48.39;99552.92;1799393;77;21049;-61
2022/06/08 03:30:14;;;;;;;3.37;3.08;;;;;;;25.04;48.50;99553.22;1807850;79;21103;-61
2022/06/08 03:32:41;;;;;;;3.15;2.90;;;;;;;25.06;48.58;99551.59;1784709;79;21508;-61
2022/06/08 03:35:09;;;;;;;3.40;3.10;;;;;;;25.07;48.64;99557.29;1782319;80;21034;-61
2022/06/08 03:37:38;;;;;;;5.33;3.72;;;;;;;25.07;48.79;99549.98;1782191;80;21010;-61
2022/06/08 03:40:08;;;;;;;5.08;2.98;;;;;;;25.10;48.97;99558.13;1788865;77;21335;-61
2022/06/08 03:42:35;;;;;;;7.25;3.40;;;;;;;25.10;49.13;99556.22;1805672;78;21698;-60
2022/06/08 03:45:03;;;;;;;4.47;2.65;;;;;;;25.12;48.95;99561.39;1791708;79;21553;-60
2022/06/08 03:47:35;;;;;;;4.37;2.90;;;;;;;25.12;48.76;99555.41;1802494;79;21076;-61
2022/06/08 03:50:04;;;;;;;3.60;2.55;;;;;;;25.14;48.92;99556.50;1808401;78;21041;-61
2022/06/08 03:52:32;;;;;;;5.08;3.05;;;;;;;25.15;48.87;99560.86;1809290;78;21073;-61
2022/06/08 03:55:01;;;;;;;3.62;2.77;;;;;;;25.15;48.72;99560.02;1807782;79;21108;-62
2022/06/08 03:57:29;;;;;;;3.70;2.95;;;;;;;25.16;48.66;99557.05;1791108;78;21161;-61
2022/06/08 03:59:57;;;;;;;5.25;3.15;;;;;;;25.16;48.61;99561.13;1785043;77;20998;-62
2022/06/08 04:02:24;;;;;;;3.50;3.20;;;;;;;25.17;48.67;99562.77;1783482;79;21604;-61
2022/06/08 04:04:51;;;;;;;3.92;2.50;;;;;;;25.19;48.71;99562.47;1764323;79;21017;-62
2022/06/08 04:07:17;;;;;;;4.92;2.77;;;;;;;25.19;48.49;99557.04;1732527;81;21153;-62
2022/06/08 04:09:46;;;;;;;3.65;2.52;;;;;;;25.20;48.39;99564.93;1742326;82;21443;-62
2022/06/08 04:12:14;;;;;;;2.80;2.60;;;;;;;25.21;48.41;99564.41;1743821;81;21481;-62
2022/06/08 04:14:41;;;;;;;2.98;2.67;;;;;;;25.22;48.27;99561.95;1740377;81;22181;-61
2022/06/08 04:17:09;;;;;;;3.98;3.05;;;;;;;25.22;48.33;99560.07;1731096;82;21090;-60
2022/06/08 04:19:37;;;;;;;3.10;2.80;;;;;;;25.23;47.91;99564.98;1738926;81;21138;-61
2022/06/08 04:22:04;;;;;;;3.08;2.77;;;;;;;25.24;47.79;99561.97;1726614;81;21076;-61
2022/06/08 04:24:33;;;;;;;4.83;2.75;;;;;;;25.25;47.85;99563.62;1752218;81;21073;-61
2022/06/08 04:27:01;;;;;;;2.98;2.67;;;;;;;25.26;47.81;99564.43;1754694;81;21053;-60
2022/06/08 04:29:29;;;;;;;3.92;3.10;;;;;;;25.26;47.66;99565.23;1734852;81;21522;-61
2022/06/08 04:31:57;;;;;;;3.52;3.00;;;;;;;25.27;47.60;99565.53;1745555;81;22584;-60
2022/06/08 04:34:26;;;;;;;2.77;2.40;;;;;;;25.29;47.57;99568.79;1745192;81;20982;-61
2022/06/08 04:36:53;;;;;;;3.83;2.80;;;;;;;25.31;47.61;99572.05;1757262;81;21029;-60
2022/06/08 04:39:22;;;;;;;3.10;2.77;;;;;;;25.32;47.56;99566.06;1756472;80;20994;-61
2022/06/08 04:41:54;;;;;;;4.42;2.87;;;;;;;25.33;47.48;99566.91;1756251;81;21057;-61
2022/06/08 04:44:21;;;;;;;4.62;2.52;;;;;;;25.36;47.58;99572.59;1757335;81;21222;-61
2022/06/08 04:46:48;;;;;;;3.22;2.92;;;;;;;25.37;47.53;99574.23;1754371;80;21002;-61
2022/06/08 04:49:19;;;;;;;5.17;3.00;;;;;;;25.39;47.49;99568.53;1752109;79;21612;-61
2022/06/08 04:51:47;;;;;;;7.50;3.83;;;;;;;25.40;47.44;99569.63;1756904;80;21045;-60
2022/06/08 04:54:14;;;;;;;5.15;2.77;;;;;;;25.42;47.40;99568.81;1757491;81;21084;-61
2022/06/08 04:56:42;;;;;;;3.67;2.90;;;;;;;25.44;47.41;99572.59;1725602;81;21683;-61
2022/06/08 04:59:09;;;;;;;3.02;2.62;;;;;;;25.45;47.34;99570.98;1743722;81;21050;-61
2022/06/08 05:01:37;;;;;;;3.20;2.90;;;;;;;25.48;47.23;99576.44;1751566;80;21048;-61
2022/06/08 05:04:07;;;;;;;4.83;2.70;;;;;;;25.50;47.23;99570.19;1755063;80;21078;-61
2022/06/08 05:06:34;;;;;;;6.20;2.90;;;;;;;25.52;47.31;99581.61;1755462;80;21100;-61
2022/06/08 05:09:00;;;;;;;3.17;2.87;;;;;;;25.55;47.36;99580.23;1746318;81;21096;-60
2022/06/08 05:11:28;;;;;;;3.60;3.22;;;;;;;25.56;47.32;99579.97;1752200;80;21021;-61
2022/06/08 05:13:55;;;;;;;3.12;2.83;;;;;;;25.59;47.11;99584.84;1738378;82;21043;-61
2022/06/08 05:16:22;;;;;;;3.22;2.72;;;;;;;25.60;46.88;99578.34;1757861;81;21543;-61
2022/06/08 05:18:51;;;;;;;3.37;3.08;;;;;;;25.61;46.70;99573.70;1757097;80;21088;-61
2022/06/08 05:21:20;;;;;;;4.95;2.72;;;;;;;25.63;46.69;99574.25;1750263;79;21155;-61
2022/06/08 05:23:48;;;;;;;4.55;2.65;;;;;;;25.64;47.19;99569.90;1740916;81;20991;-61
2022/06/08 05:26:16;;;;;;;6.35;3.22;;;;;;;25.66;46.72;99574.52;1739879;80;21698;-61
2022/06/08 05:28:43;;;;;;;3.33;2.65;;;;;;;25.67;46.89;99581.61;1756861;80;21505;-61
2022/06/08 05:31:11;;;;;;;5.83;3.08;;;;;;;25.69;46.95;99578.07;1754378;80;21020;-61
2022/06/08 05:33:39;;;;;;;3.25;2.95;;;;;;;25.72;46.52;99584.05;1720510;81;22155;-62
2022/06/08 05:36:16;;;;;;;5.37;3.00;;;;;;;25.74;46.54;99576.44;1758782;80;21013;-61
2022/06/08 05:38:42;;;;;;;4.20;2.80;;;;;;;25.74;46.26;99577.80;1767985;80;21513;-61
2022/06/08 05:41:08;;;;;;;4.15;3.02;;;;;;;25.76;46.14;99578.34;1775564;80;21073;-61
2022/06/08 05:43:37;;;;;;;4.20;3.10;;;;;;;25.77;46.02;99581.31;1810993;78;21084;-62
2022/06/08 05:46:04;;;;;;;3.67;2.98;;;;;;;25.78;46.29;99582.41;1807646;78;21092;-62
2022/06/08 05:48:33;;;;;;;2.75;2.55;;;;;;;25.80;46.08;99588.95;1813817;78;21059;-62
2022/06/08 05:51:01;;;;;;;3.72;2.85;;;;;;;25.81;46.05;99574.27;1819252;78;21005;-61
2022/06/08 05:53:28;;;;;;;3.25;2.98;;;;;;;25.83;45.96;99578.89;1820300;78;21501;-62
2022/06/08 05:55:55;;;;;;;5.37;2.98;;;;;;;25.83;45.90;99582.42;1819123;78;21036;-61
2022/06/08 05:58:23;;;;;;;2.70;2.33;;;;;;;25.84;45.84;99583.22;1820681;78;21289;-61
2022/06/08 06:00:50;;;;;;;6.00;3.30;;;;;;;25.86;45.73;99576.44;1820371;78;21482;-62
2022/06/08 06:03:18;;;;;;;3.83;2.22;;;;;;;25.86;45.43;99572.36;1820398;78;21029;-61
2022/06/08 06:05:45;;;;;;;3.60;2.45;;;;;;;25.88;45.28;99574.27;1820398;78;21527;-61
2022/06/08 06:08:14;;;;;;;5.10;2.52;;;;;;;25.91;45.01;99582.44;1820427;78;21345;-61
2022/06/08 06:10:46;;;;;;;3.08;2.37;;;;;;;25.91;45.15;99570.20;1818868;78;21132;-60
2022/06/08 06:13:14;;;;;;;3.80;2.17;;;;;;;25.93;44.80;99574.02;1799819;77;21569;-62
2022/06/08 06:15:44;;;;;;;2.80;2.42;;;;;;;25.94;44.77;99569.66;1792268;78;21017;-61
2022/06/08 06:18:11;;;;;;;7.58;2.30;;;;;;;25.94;44.59;99564.22;1801065;78;21121;-61
2022/06/08 06:20:40;;;;;;;6.15;3.08;;;;;;;25.95;44.59;99569.11;1810991;78;21048;-61
2022/06/08 06:23:17;;;;;;;3.95;2.27;;;;;;;25.95;44.63;99569.92;1809193;78;21295;-60
2022/06/08 06:25:49;;;;;;;7.00;2.90;;;;;;;25.95;44.76;99557.67;1809207;78;21001;-62
2022/06/08 06:28:23;;;;;;;4.17;2.55;;;;;;;25.96;45.68;99563.92;1813249;77;21080;-63
2022/06/08 06:31:00;;;;;;;21.55;7.00;;;;;;;25.97;45.36;99562.84;1811945;78;21005;-65
2022/06/08 06:33:31;;;;;;;6.37;3.27;;;;;;;25.83;79.14;99575.61;1797758;78;21584;-64
2022/06/08 06:36:00;;;;;;;4.62;2.85;;;;;;;25.81;62.94;99567.47;1783612;78;21297;-65
2022/06/08 06:38:27;;;;;;;5.08;3.52;;;;;;;25.73;56.54;99567.98;1808192;79;21021;-65
2022/06/08 06:40:54;;;;;;;4.25;3.40;;;;;;;25.66;53.09;99567.72;1805454;78;21088;-65
2022/06/08 06:43:21;;;;;;;4.80;3.22;;;;;;;25.64;51.84;99566.37;1809659;78;21485;-65
2022/06/08 06:45:50;;;;;;;4.67;2.60;;;;;;;25.64;51.96;99567.19;1780413;77;21084;-64
2022/06/08 06:48:19;;;;;;;3.72;2.42;;;;;;;25.65;50.59;99559.31;1804798;78;21128;-65
2022/06/08 06:50:45;;;;;;;5.10;2.17;;;;;;;25.66;48.06;99561.47;1805956;77;21549;-64
2022/06/08 06:53:13;;;;;;;4.33;2.30;;;;;;;25.65;47.75;99562.03;1819790;77;21086;-64
2022/06/08 06:55:41;;;;;;;4.47;2.20;;;;;;;25.69;50.18;99564.99;1807569;77;21009;-65
2022/06/08 06:58:09;;;;;;;4.15;2.80;;;;;;;25.72;50.05;99562.30;1807208;77;21010;-65
2022/06/08 07:00:37;;;;;;;4.45;2.72;;;;;;;25.76;50.39;99561.46;1810405;77;21206;-65
2022/06/08 07:03:07;;;;;;;5.47;2.20;;;;;;;25.79;47.75;99559.56;1810274;77;21100;-65
2022/06/08 07:05:34;;;;;;;3.47;2.40;;;;;;;25.82;47.49;99567.17;1804237;77;21386;-65
2022/06/08 07:08:04;;;;;;;3.27;2.25;;;;;;;25.86;49.50;99570.16;1789729;78;21019;-66
2022/06/08 07:10:31;;;;;;;2.95;2.30;;;;;;;25.88;50.88;99560.66;1817263;77;21073;-64
2022/06/08 07:12:58;;;;;;;2.95;2.40;;;;;;;25.88;49.24;99559.30;1780340;79;21950;-64
2022/06/08 07:15:27;;;;;;;3.50;2.27;;;;;;;25.89;49.54;99558.74;1788470;78;21620;-64
2022/06/08 07:17:54;;;;;;;3.15;2.47;;;;;;;25.90;49.33;99563.92;1802311;78;21077;-63
2022/06/08 07:20:23;;;;;;;2.37;2.17;;;;;;;25.90;49.99;99557.11;1808286;77;21026;-65
2022/06/08 07:22:50;;;;;;;2.77;2.30;;;;;;;25.92;49.34;99561.48;1796674;79;21014;-66
2022/06/08 07:25:18;;;;;;;2.75;2.08;;;;;;;25.92;49.44;99547.88;1785229;79;21172;-64
2022/06/08 07:27:45;;;;;;;2.42;2.22;;;;;;;25.93;48.85;99546.25;1791790;78;21033;-64
2022/06/08 07:30:13;;;;;;;3.15;2.00;;;;;;;25.96;47.88;99552.52;1793778;79;21037;-64
2022/06/08 07:32:40;;;;;;;2.80;2.27;;;;;;;25.98;46.77;99552.22;1798609;79;21546;-66
2022/06/08 07:35:08;;;;;;;2.35;2.10;;;;;;;25.98;46.27;99554.41;1798298;77;22014;-65
2022/06/08 07:37:34;;;;;;;3.47;2.20;;;;;;;25.98;45.54;99547.61;1810655;77;22306;-65
2022/06/08 07:40:04;;;;;;;4.80;2.37;;;;;;;25.97;44.71;99555.48;1796927;79;21701;-65
2022/06/08 07:42:31;;;;;;;2.92;2.30;;;;;;;25.97;46.96;99551.41;1807936;79;21090;-64
2022/06/08 07:44:58;;;;;;;2.65;2.10;;;;;;;25.96;45.88;99542.16;1801938;79;21080;-65
2022/06/08 07:47:24;;;;;;;4.08;2.15;;;;;;;25.97;45.92;99540.52;1797917;79;21021;-64
2022/06/08 07:49:51;;;;;;;4.22;2.30;;;;;;;25.99;47.63;99547.86;1741729;82;22151;-65
2022/06/08 07:52:20;;;;;;;2.58;2.35;;;;;;;26.03;47.08;99548.13;1775312;79;21489;-65
2022/06/08 07:54:47;;;;;;;4.20;2.02;;;;;;;26.04;46.21;99556.03;1727885;82;21041;-65
2022/06/08 07:57:25;;;;;;;4.08;2.80;;;;;;;26.05;48.23;99551.39;1770964;79;21058;-63
2022/06/08 07:59:52;;;;;;;3.37;2.50;;;;;;;26.06;48.06;99554.40;1748792;80;21651;-64
2022/06/08 08:02:19;;;;;;;4.50;2.55;;;;;;;26.07;48.50;99546.48;1767812;80;21193;-64
2022/06/08 08:04:45;;;;;;;7.40;2.37;;;;;;;26.08;48.66;99547.58;1762327;80;21030;-65
2022/06/08 08:07:13;;;;;;;4.70;2.70;;;;;;;26.10;49.46;99547.31;1808365;79;21032;-63
2022/06/08 08:09:40;;;;;;;8.10;2.20;;;;;;;26.11;49.18;99550.28;1809372;77;20984;-66
2022/06/08 08:12:11;;;;;;;7.97;2.70;;;;;;;26.11;47.56;99547.56;1805174;78;21102;-65
2022/06/08 08:14:37;;;;;;;2.62;2.05;;;;;;;26.14;48.10;99551.66;1808656;77;21106;-64
2022/06/08 08:17:04;;;;;;;5.95;2.58;;;;;;;26.14;48.42;99559.28;1807922;77;21071;-64
2022/06/08 08:19:32;;;;;;;3.65;2.08;;;;;;;26.13;47.89;99564.44;1805089;79;21046;-63
2022/06/08 08:21:59;;;;;;;2.65;2.20;;;;;;;26.11;47.02;99561.73;1808615;79;21547;-64
2022/06/08 08:24:26;;;;;;;3.20;2.20;;;;;;;26.11;46.58;99547.56;1795357;79;21004;-61
2022/06/08 08:26:55;;;;;;;3.87;2.00;;;;;;;26.13;46.81;99559.55;1806426;77;21134;-62
2022/06/08 08:29:22;;;;;;;2.02;1.92;;;;;;;26.15;47.32;99545.92;1794317;79;20997;-63
2022/06/08 08:31:49;;;;;;;4.92;2.87;;;;;;;26.16;47.37;99546.20;1793755;79;21004;-62
2022/06/08 08:34:16;;;;;;;5.37;2.40;;;;;;;26.17;46.16;99545.09;1795456;78;20991;-62
2022/06/08 08:36:43;;;;;;;5.28;2.65;;;;;;;26.19;45.00;99540.73;1802303;78;21010;-62
2022/06/08 08:39:10;;;;;;;7.00;2.87;;;;;;;26.19;44.91;99540.73;1791421;79;21954;-63
2022/06/08 08:44:39;;;;;;;3.87;2.83;;;;;;;26.22;45.49;99532.84;1800315;77;21049;-62
2022/06/08 08:47:25;;;;;;;2.67;2.40;;;;;;;26.23;45.72;99535.01;1790673;79;21065;-62
2022/06/08 08:50:21;;;;;;;2.72;2.27;;;;;;;26.24;45.09;99537.46;1815183;78;21565;-62
2022/06/08 08:53:14;;;;;;;3.95;2.42;;;;;;;26.26;45.45;99533.91;1814408;79;21057;-62
2022/06/08 08:55:51;;;;;;;3.37;2.67;;;;;;;26.27;45.50;99533.39;1807244;79;20991;-62
2022/06/08 08:58:22;;;;;;;4.53;2.60;;;;;;;26.29;46.62;99538.81;1803726;78;21010;-62
2022/06/08 09:00:59;;;;;;;4.05;2.87;;;;;;;26.33;47.13;99544.53;1802892;77;20982;-64
2022/06/08 09:03:34;;;;;;;3.65;2.72;;;;;;;26.37;47.92;99539.34;1804146;78;21037;-66
2022/06/08 09:06:17;;;;;;;2.52;2.30;;;;;;;26.38;47.90;99540.96;1806325;78;21446;-66
2022/06/08 09:08:49;;;;;;;4.35;2.50;;;;;;;26.40;48.07;99523.80;1813914;77;21071;-66
2022/06/08 09:11:22;;;;;;;5.03;2.60;;;;;;;26.41;48.21;99535.78;1805955;78;21023;-66
2022/06/08 09:13:54;;;;;;;3.25;2.27;;;;;;;26.42;47.32;99528.41;1809945;79;20975;-66
2022/06/08 09:16:40;;;;;;;3.90;2.60;;;;;;;26.44;47.03;99525.70;1811113;79;21508;-66
2022/06/08 09:19:32;;;;;;;3.22;2.42;;;;;;;26.45;46.96;99512.89;1815593;77;21147;-64
2022/06/08 09:22:10;;;;;;;2.67;2.47;;;;;;;26.48;46.75;99513.68;1807655;78;21080;-63
2022/06/08 09:24:53;;;;;;;2.77;2.50;;;;;;;26.51;46.97;99524.58;1801237;78;21057;-65
2022/06/08 09:27:33;;;;;;;3.60;2.50;;;;;;;26.53;45.38;99521.84;1808367;77;21008;-65
2022/06/08 09:30:19;;;;;;;4.45;2.70;;;;;;;26.55;45.37;99516.12;1799825;79;20990;-65
2022/06/08 09:32:57;;;;;;;4.58;2.70;;;;;;;26.57;45.14;99509.84;1808658;77;20967;-65
2022/06/08 09:35:34;;;;;;;4.42;2.85;;;;;;;26.60;45.42;99516.94;1834320;77;21109;-65
2022/06/08 09:38:14;;;;;;;4.12;2.65;;;;;;;26.63;45.04;99508.19;1799938;77;21009;-65
2022/06/08 09:41:24;;;;;;;4.12;2.62;;;;;;;26.68;46.07;99519.63;1805007;78;21549;-65
2022/06/08 09:44:15;;;;;;;3.30;2.60;;;;;;;26.70;46.36;99513.34;1798408;79;21080;-65
2022/06/08 09:53:10;;;;;;;3.95;2.98;;;;;;;26.78;46.30;99499.69;1789142;77;21053;-64
2022/06/08 09:55:59;;;;;;;4.62;3.05;;;;;;;26.81;46.34;99496.38;1813320;78;21522;-65
2022/06/08 09:59:15;;;;;;;3.65;3.12;;;;;;;26.86;46.45;99501.81;1784176;78;21517;-65
2022/06/08 10:02:06;;;;;;;6.03;3.30;;;;;;;26.89;46.60;99508.07;1810099;79;21746;-64
2022/06/08 10:04:58;;;;;;;4.58;3.00;;;;;;;26.91;46.62;99494.98;1787367;78;21073;-65
2022/06/08 10:07:45;;;;;;;4.05;3.00;;;;;;;26.95;46.58;99502.05;1802628;78;21801;-65
2022/06/08 10:10:33;;;;;;;6.03;3.62;;;;;;;26.97;46.48;99492.48;1814611;77;21427;-65
2022/06/08 10:13:05;;;;;;;4.58;3.00;;;;;;;26.99;46.41;99500.38;1812158;78;21077;-64
2022/06/08 10:15:46;;;;;;;3.65;2.70;;;;;;;27.02;46.28;99497.06;1810910;78;26654;-65
2022/06/08 10:18:40;;;;;;;3.80;3.00;;;;;;;27.03;46.17;99486.44;1802955;77;20974;-64
2022/06/08 10:21:23;;;;;;;4.27;2.80;;;;;;;27.05;45.94;99487.78;1805985;77;21037;-64
2022/06/08 10:24:20;;;;;;;3.10;2.80;;;;;;;27.08;45.84;99483.66;1804080;79;21589;-65
2022/06/08 10:26:51;;;;;;;4.30;3.17;;;;;;;27.11;45.75;99477.66;1835333;77;21033;-66
2022/06/08 10:29:43;;;;;;;4.83;3.67;;;;;;;27.13;46.10;99475.45;1805447;78;21107;-66
2022/06/08 10:32:32;;;;;;;5.42;3.40;;;;;;;27.18;48.67;99478.71;1807298;78;21525;-64
2022/06/08 10:35:06;;;;;;;6.05;4.05;;;;;;;27.18;51.59;99471.34;1807425;78;21001;-64
2022/06/08 10:37:36;;;;;;;6.17;3.65;;;;;;;27.19;52.64;99479.77;1740401;81;21049;-65
2022/06/08 10:40:09;;;;;;;5.70;3.52;;;;;;;27.18;53.43;99472.70;1752668;81;21195;-65
2022/06/08 10:42:46;;;;;;;6.20;3.05;;;;;;;27.18;54.08;99471.89;1747347;80;21079;-64
2022/06/08 10:45:39;;;;;;;6.33;3.55;;;;;;;27.18;54.38;99470.53;1761726;81;21049;-64
2022/06/08 10:48:24;;;;;;;6.95;3.62;;;;;;;27.15;53.31;99470.53;1760620;80;21545;-64
2022/06/08 10:51:16;;;;;;;5.30;3.50;;;;;;;27.13;53.71;99462.38;1762791;81;21509;-64
2022/06/08 10:56:38;;;;;;;4.97;3.40;;;;;;;27.10;53.30;99461.58;1763528;81;21145;-65
2022/06/08 10:59:13;;;;;;;5.72;3.42;;;;;;;27.09;53.40;99454.52;1753602;80;21064;-65
2022/06/08 11:02:00;;;;;;;3.20;2.90;;;;;;;27.08;54.43;99456.40;1763066;79;21473;-65
2022/06/08 11:04:35;;;;;;;3.25;2.52;;;;;;;27.06;54.06;99452.63;1768715;80;21046;-66
2022/06/08 11:07:11;;;;;;;4.47;2.87;;;;;;;27.06;54.62;99452.63;1757695;80;21053;-64
2022/06/08 11:09:44;;;;;;;3.30;2.80;;;;;;;27.08;55.55;99456.40;1753260;80;21118;-63
2022/06/08 11:12:27;;;;;;;2.60;2.40;;;;;;;27.10;56.68;99455.59;1774461;80;21065;-64
2022/06/08 11:14:57;;;;;;;3.25;2.95;;;;;;;27.10;57.22;99451.50;1743437;82;21042;-64
2022/06/08 11:17:35;;;;;;;3.67;3.00;;;;;;;27.13;57.44;99463.19;1766138;79;21060;-66
2022/06/08 11:20:37;;;;;;;2.55;2.35;;;;;;;27.14;55.12;99461.27;1755732;79;22131;-65
2022/06/08 11:23:24;;;;;;;2.70;2.50;;;;;;;27.17;54.45;99446.52;1753431;81;21301;-65
2022/06/08 11:26:05;;;;;;;3.08;2.52;;;;;;;27.22;55.58;99463.41;1753954;81;21098;-65
2022/06/08 11:28:42;;;;;;;4.03;2.47;;;;;;;27.26;55.93;99464.49;1721365;82;21065;-65
2022/06/08 11:31:12;;;;;;;3.08;2.77;;;;;;;27.28;55.71;99451.94;1758096;80;21060;-65
2022/06/08 11:34:08;;;;;;;3.02;2.62;;;;;;;27.31;56.69;99458.16;1760525;79;21069;-66
2022/06/08 11:36:56;;;;;;;2.55;2.35;;;;;;;27.35;57.49;99451.04;1759514;80;21161;-66
2022/06/08 11:39:56;;;;;;;3.80;2.58;;;;;;;27.36;57.30;99445.86;1700981;83;21014;-65
2022/06/08 11:42:32;;;;;;;3.05;2.35;;;;;;;27.39;57.59;99441.17;1717368;81;21061;-65
2022/06/08 11:45:05;;;;;;;3.42;2.77;;;;;;;27.41;57.46;99438.45;1696605;84;21011;-65
2022/06/08 11:50:25;;;;;;;2.92;2.70;;;;;;;27.53;57.66;99429.07;1880521;74;22535;-65
2022/06/08 11:53:01;;;;;;;2.75;2.50;;;;;;;27.49;57.89;99432.92;1842608;77;20922;-66
2022/06/08 11:55:37;;;;;;;3.90;2.60;;;;;;;27.51;57.33;99433.45;1853756;75;21493;-66
2022/06/08 11:58:20;;;;;;;2.95;2.65;;;;;;;27.52;56.78;99432.88;1839323;77;21078;-65
2022/06/08 12:00:53;;;;;;;3.30;3.00;;;;;;;27.51;56.66;99433.45;1842229;75;20972;-65
2022/06/08 12:03:28;;;;;;;4.75;2.95;;;;;;;27.50;56.72;99429.08;1846897;75;21004;-66
2022/06/08 12:06:09;;;;;;;3.42;2.60;;;;;;;27.49;56.11;99427.99;1834476;77;21438;-64
2022/06/08 12:08:43;;;;;;;3.83;2.72;;;;;;;27.48;54.97;99428.55;1851809;75;21141;-65
2022/06/08 12:11:12;;;;;;;5.17;2.52;;;;;;;27.49;55.49;99417.92;1771304;78;21329;-65
2022/06/08 12:13:39;;;;;;;4.83;2.87;;;;;;;27.51;55.12;99414.91;1741934;80;21092;-66
2022/06/08 12:16:35;;;;;;;6.35;3.62;;;;;;;27.54;54.95;99411.59;1741260;81;21057;-67
2022/06/08 12:19:15;;;;;;;5.62;2.80;;;;;;;27.57;54.78;99420.01;1693927;84;21057;-63
2022/06/08 12:21:46;;;;;;;3.30;2.98;;;;;;;27.64;54.76;99413.67;1705578;84;21132;-63
2022/06/08 12:24:21;;;;;;;5.95;3.40;;;;;;;27.68;54.91;99418.53;1685330;84;21074;-63